Time;durP1;ratioP1;P1;durP2;ratioP2;P2;SDS_P1;SDS_P2;PMS_P1;PMS_P2;Temp;Humidity;BMP_temperature;BMP_pressure;BME280_temperature;BME280_humidity;BME280_pressure;Samples;Min_cycle;Max_cycle;Signal;HPM_P1;HPM_P2
2023/04/06 00:00:46;;;;;;;3.42;2.60;;;;;;;;;;5014107;28;20030;-60
2023/04/06 00:03:12;;;;;;;3.78;2.75;;;;;;;;;;5014328;28;20030;-60
2023/04/06 00:05:38;;;;;;;4.13;2.60;;;;;;;;;;5014031;28;20029;-60
2023/04/06 00:08:04;;;;;;;3.00;2.20;;;;;;;;;;5013853;28;20067;-61
2023/04/06 00:10:31;;;;;;;3.47;2.45;;;;;;;;;;5013379;28;20474;-60
2023/04/06 00:12:57;;;;;;;3.00;2.42;;;;;;;;;;5014164;28;20048;-61
2023/04/06 00:15:23;;;;;;;3.60;2.45;;;;;;;;;;5013866;28;20041;-62
2023/04/06 00:17:49;;;;;;;3.35;2.72;;;;;;;;;;5014491;28;20544;-62
2023/04/06 00:20:16;;;;;;;4.63;2.90;;;;;;;;;;5014023;28;20474;-61
2023/04/06 00:22:42;;;;;;;4.13;2.85;;;;;;;;;;5013838;28;20088;-61
2023/04/06 00:25:09;;;;;;;3.95;3.03;;;;;;;;;;5013707;28;20034;-62
2023/04/06 00:27:35;;;;;;;4.72;3.13;;;;;;;;;;5013649;28;20504;-59
2023/04/06 00:30:02;;;;;;;3.60;2.70;;;;;;;;;;5013828;28;20101;-62
2023/04/06 00:32:29;;;;;;;3.05;2.35;;;;;;;;;;5013513;28;20037;-62
2023/04/06 00:34:55;;;;;;;4.05;2.47;;;;;;;;;;5013330;28;20169;-62
2023/04/06 00:37:21;;;;;;;4.32;3.15;;;;;;;;;;5014038;28;20022;-61
2023/04/06 00:39:47;;;;;;;4.25;3.00;;;;;;;;;;5012931;28;20471;-61
2023/04/06 00:42:13;;;;;;;3.60;2.65;;;;;;;;;;5013554;28;20034;-62
2023/04/06 00:44:40;;;;;;;4.70;2.63;;;;;;;;;;5013405;28;20037;-62
2023/04/06 00:47:06;;;;;;;3.60;2.80;;;;;;;;;;5013569;28;20033;-62
2023/04/06 00:49:32;;;;;;;4.30;2.88;;;;;;;;;;5013197;28;20128;-62
2023/04/06 00:51:59;;;;;;;6.50;3.28;;;;;;;;;;5013502;28;20029;-62
2023/04/06 00:54:25;;;;;;;4.18;3.10;;;;;;;;;;5012719;28;20430;-62
2023/04/06 00:56:51;;;;;;;5.03;3.47;;;;;;;;;;5013648;28;20033;-62
2023/04/06 00:59:17;;;;;;;3.42;2.90;;;;;;;;;;5013386;28;20625;-59
2023/04/06 01:01:43;;;;;;;4.35;3.15;;;;;;;;;;5013123;28;20069;-62
2023/04/06 01:04:09;;;;;;;3.75;3.30;;;;;;;;;;5013124;28;20061;-62
2023/04/06 01:06:35;;;;;;;3.50;2.80;;;;;;;;;;5013007;28;20033;-60
2023/04/06 01:09:01;;;;;;;4.85;3.10;;;;;;;;;;5012459;28;20037;-61
2023/04/06 01:11:27;;;;;;;4.43;3.05;;;;;;;;;;5012572;28;20025;-62
2023/04/06 01:13:53;;;;;;;4.50;2.75;;;;;;;;;;5012948;28;20037;-62
2023/04/06 01:16:19;;;;;;;4.10;2.83;;;;;;;;;;5013121;28;20096;-59
2023/04/06 01:18:45;;;;;;;4.28;3.20;;;;;;;;;;5012525;28;20456;-59
2023/04/06 01:21:15;;;;;;;5.40;3.15;;;;;;;;;;5012898;28;20058;-59
2023/04/06 01:23:45;;;;;;;3.88;2.95;;;;;;;;;;5010924;28;20141;-61
2023/04/06 01:26:12;;;;;;;5.22;3.28;;;;;;;;;;5012669;28;20443;-62
2023/04/06 01:28:38;;;;;;;3.67;3.10;;;;;;;;;;5012444;28;20030;-61
2023/04/06 01:31:05;;;;;;;4.88;3.50;;;;;;;;;;5012609;28;20025;-61
2023/04/06 01:33:31;;;;;;;4.20;2.83;;;;;;;;;;5012404;28;20030;-60
2023/04/06 01:35:57;;;;;;;4.45;3.33;;;;;;;;;;5012701;28;20095;-62
2023/04/06 01:38:23;;;;;;;5.05;3.30;;;;;;;;;;5011919;28;20482;-62
2023/04/06 01:40:49;;;;;;;4.13;3.35;;;;;;;;;;5012907;28;20030;-62
2023/04/06 01:43:15;;;;;;;4.78;3.33;;;;;;;;;;5012310;28;20113;-62
2023/04/06 01:45:41;;;;;;;4.80;3.25;;;;;;;;;;5011544;28;20155;-62
2023/04/06 01:48:08;;;;;;;5.45;3.60;;;;;;;;;;5012544;28;20080;-62
2023/04/06 01:50:34;;;;;;;4.40;3.35;;;;;;;;;;5012427;28;20396;-61
2023/04/06 01:53:00;;;;;;;4.75;3.45;;;;;;;;;;5011581;28;20038;-62
2023/04/06 01:55:26;;;;;;;3.97;3.22;;;;;;;;;;5011620;28;20034;-62
2023/04/06 01:57:52;;;;;;;4.13;3.45;;;;;;;;;;5012344;28;20026;-61
2023/04/06 02:00:18;;;;;;;5.90;3.75;;;;;;;;;;5012474;28;20402;-61
2023/04/06 02:02:44;;;;;;;5.85;3.50;;;;;;;;;;5011802;28;20044;-61
2023/04/06 02:05:10;;;;;;;5.88;3.70;;;;;;;;;;5012204;28;20022;-61
2023/04/06 02:07:36;;;;;;;6.45;4.07;;;;;;;;;;5011552;28;20065;-61
2023/04/06 02:10:03;;;;;;;3.95;3.28;;;;;;;;;;5012097;28;20049;-61
2023/04/06 02:12:29;;;;;;;5.40;3.15;;;;;;;;;;5011745;28;20061;-61
2023/04/06 02:14:55;;;;;;;5.47;3.65;;;;;;;;;;5011845;28;20042;-61
2023/04/06 02:17:21;;;;;;;4.93;3.75;;;;;;;;;;5012296;28;20026;-61
2023/04/06 02:19:47;;;;;;;4.60;3.67;;;;;;;;;;5011883;28;20482;-61
2023/04/06 02:22:13;;;;;;;5.70;3.83;;;;;;;;;;5011431;28;20137;-61
2023/04/06 02:24:39;;;;;;;5.75;3.95;;;;;;;;;;5011648;28;20026;-61
2023/04/06 02:27:05;;;;;;;6.15;4.32;;;;;;;;;;5011755;28;20113;-61
2023/04/06 02:29:31;;;;;;;5.57;3.90;;;;;;;;;;5011493;28;20037;-61
2023/04/06 02:31:57;;;;;;;3.88;3.20;;;;;;;;;;5011751;28;20030;-61
2023/04/06 02:34:23;;;;;;;6.88;3.35;;;;;;;;;;5011302;28;20390;-61
2023/04/06 02:36:49;;;;;;;5.97;4.35;;;;;;;;;;5011536;28;20072;-61
2023/04/06 02:39:15;;;;;;;4.70;3.60;;;;;;;;;;5011272;28;20034;-61
2023/04/06 02:41:41;;;;;;;5.25;3.90;;;;;;;;;;5011266;28;20100;-61
2023/04/06 02:44:08;;;;;;;4.78;3.72;;;;;;;;;;5011493;28;20068;-61
2023/04/06 02:46:35;;;;;;;4.82;3.80;;;;;;;;;;5011500;28;20037;-61
2023/04/06 02:49:01;;;;;;;5.43;4.07;;;;;;;;;;5011580;28;20037;-62
2023/04/06 02:51:27;;;;;;;4.95;3.00;;;;;;;;;;5011285;28;20018;-61
2023/04/06 02:53:54;;;;;;;5.60;3.85;;;;;;;;;;5011189;28;20510;-61
2023/04/06 02:56:21;;;;;;;4.45;3.70;;;;;;;;;;5011598;28;20026;-61
2023/04/06 02:58:47;;;;;;;4.15;3.45;;;;;;;;;;5011611;28;20034;-61
2023/04/06 03:01:13;;;;;;;5.68;3.55;;;;;;;;;;5011569;28;20030;-61
2023/04/06 03:03:39;;;;;;;4.97;3.50;;;;;;;;;;5011013;28;20032;-61
2023/04/06 03:06:05;;;;;;;4.55;3.22;;;;;;;;;;5011202;28;20029;-61
2023/04/06 03:08:31;;;;;;;4.30;3.15;;;;;;;;;;5010325;28;20037;-61
2023/04/06 03:10:57;;;;;;;5.25;3.75;;;;;;;;;;4993538;28;20402;-61
2023/04/06 03:13:23;;;;;;;6.75;4.03;;;;;;;;;;5010906;28;20042;-62
2023/04/06 03:15:49;;;;;;;5.35;3.95;;;;;;;;;;5011480;28;20045;-61
2023/04/06 03:18:15;;;;;;;5.18;3.75;;;;;;;;;;5011100;28;20397;-61
2023/04/06 03:20:42;;;;;;;5.95;4.30;;;;;;;;;;5010896;28;20501;-61
2023/04/06 03:23:08;;;;;;;4.57;3.60;;;;;;;;;;5010733;28;20436;-61
2023/04/06 03:25:34;;;;;;;4.07;3.42;;;;;;;;;;5010820;28;20029;-61
2023/04/06 03:28:00;;;;;;;5.28;4.03;;;;;;;;;;5011017;28;20033;-61
2023/04/06 03:30:26;;;;;;;5.53;3.95;;;;;;;;;;5010834;28;20127;-62
2023/04/06 03:32:52;;;;;;;5.43;4.00;;;;;;;;;;5011054;28;20505;-62
2023/04/06 03:35:18;;;;;;;4.75;3.58;;;;;;;;;;5011155;28;20127;-61
2023/04/06 03:37:45;;;;;;;6.32;3.90;;;;;;;;;;5010360;28;20480;-61
2023/04/06 03:40:11;;;;;;;5.72;4.15;;;;;;;;;;5010892;28;20026;-61
2023/04/06 03:42:37;;;;;;;6.32;4.18;;;;;;;;;;5010514;28;20037;-61
2023/04/06 03:45:03;;;;;;;4.75;3.70;;;;;;;;;;5010989;28;20024;-61
2023/04/06 03:47:29;;;;;;;5.38;4.00;;;;;;;;;;5010680;28;20025;-61
2023/04/06 03:49:56;;;;;;;5.18;3.88;;;;;;;;;;5010820;28;20057;-61
2023/04/06 03:52:23;;;;;;;5.43;3.63;;;;;;;;;;5010419;28;20052;-61
2023/04/06 03:54:49;;;;;;;4.72;3.72;;;;;;;;;;5010902;28;20120;-61
2023/04/06 03:57:15;;;;;;;6.13;4.43;;;;;;;;;;4993204;28;20467;-61
2023/04/06 03:59:41;;;;;;;6.72;3.92;;;;;;;;;;5010556;28;20026;-61
2023/04/06 04:02:07;;;;;;;8.40;4.50;;;;;;;;;;5010602;28;20101;-61
2023/04/06 04:04:33;;;;;;;5.63;3.97;;;;;;;;;;5010351;28;20461;-62
2023/04/06 04:06:59;;;;;;;5.18;3.67;;;;;;;;;;5010048;28;20479;-61
2023/04/06 04:09:25;;;;;;;5.68;4.00;;;;;;;;;;5012951;28;20053;-61
2023/04/06 04:11:51;;;;;;;5.55;3.60;;;;;;;;;;5014676;28;20026;-61
2023/04/06 04:14:17;;;;;;;5.30;4.10;;;;;;;;;;5014431;28;20026;-61
2023/04/06 04:16:43;;;;;;;4.88;3.72;;;;;;;;;;5014040;28;20084;-61
2023/04/06 04:19:09;;;;;;;4.80;3.83;;;;;;;;;;5014174;28;20417;-61
2023/04/06 04:21:43;;;;;;;6.60;3.75;;;;;;;;;;5013365;28;20037;-61
2023/04/06 04:24:09;;;;;;;5.10;3.83;;;;;;;;;;5013875;28;20026;-61
2023/04/06 04:26:35;;;;;;;4.40;3.25;;;;;;;;;;5013606;28;20030;-61
2023/04/06 04:29:01;;;;;;;5.70;3.55;;;;;;;;;;5013858;28;20030;-61
2023/04/06 04:31:27;;;;;;;4.97;3.80;;;;;;;;;;5013688;28;20389;-61
2023/04/06 04:33:53;;;;;;;6.28;3.70;;;;;;;;;;5013763;28;20026;-61
2023/04/06 04:36:19;;;;;;;5.68;3.95;;;;;;;;;;5013624;28;20030;-62
2023/04/06 04:38:45;;;;;;;6.90;4.63;;;;;;;;;;5013005;28;20030;-61
2023/04/06 04:41:11;;;;;;;5.75;4.05;;;;;;;;;;5013780;28;20030;-61
2023/04/06 04:43:38;;;;;;;6.03;4.05;;;;;;;;;;5013255;28;20033;-61
2023/04/06 04:46:04;;;;;;;5.45;3.85;;;;;;;;;;5013671;28;20034;-63
2023/04/06 04:48:30;;;;;;;4.68;3.75;;;;;;;;;;5013422;28;20030;-61
2023/04/06 04:50:56;;;;;;;4.95;3.72;;;;;;;;;;5013210;28;20029;-61
2023/04/06 04:53:22;;;;;;;5.05;3.92;;;;;;;;;;5013366;28;20057;-61
2023/04/06 04:55:49;;;;;;;5.28;3.55;;;;;;;;;;5013885;28;20065;-61
2023/04/06 04:58:16;;;;;;;4.97;4.03;;;;;;;;;;5013480;28;20030;-61
2023/04/06 05:00:43;;;;;;;5.80;3.75;;;;;;;;;;5012915;28;20033;-61
2023/04/06 05:03:09;;;;;;;3.83;3.35;;;;;;;;;;5013330;28;20026;-61
2023/04/06 05:05:35;;;;;;;4.75;3.67;;;;;;;;;;5012398;28;20038;-61
2023/04/06 05:08:02;;;;;;;4.07;3.55;;;;;;;;;;5013379;28;20041;-61
2023/04/06 05:10:28;;;;;;;4.90;3.67;;;;;;;;;;5012358;28;20101;-61
2023/04/06 05:12:54;;;;;;;5.47;3.75;;;;;;;;;;5012711;28;20030;-61
2023/04/06 05:15:20;;;;;;;4.50;3.30;;;;;;;;;;5013347;28;20511;-61
2023/04/06 05:17:46;;;;;;;4.97;3.47;;;;;;;;;;5011729;28;20669;-61
2023/04/06 05:20:12;;;;;;;8.07;3.60;;;;;;;;;;5012058;28;20375;-61
2023/04/06 05:22:38;;;;;;;5.07;3.63;;;;;;;;;;5012996;28;20030;-61
2023/04/06 05:25:04;;;;;;;4.43;3.13;;;;;;;;;;5012378;28;20497;-61
2023/04/06 05:27:30;;;;;;;4.45;3.22;;;;;;;;;;5012211;28;20034;-61
2023/04/06 05:29:56;;;;;;;6.95;4.00;;;;;;;;;;5012493;28;20394;-61
2023/04/06 05:32:24;;;;;;;5.47;3.40;;;;;;;;;;5011550;28;20030;-60
2023/04/06 05:34:50;;;;;;;4.40;3.13;;;;;;;;;;5002359;28;20030;-61
2023/04/06 05:37:16;;;;;;;4.93;3.50;;;;;;;;;;5012998;28;20425;-63
2023/04/06 05:39:42;;;;;;;4.82;3.40;;;;;;;;;;5022756;28;20413;-60
2023/04/06 05:42:08;;;;;;;4.53;3.25;;;;;;;;;;5012414;28;20057;-59
2023/04/06 05:44:35;;;;;;;5.80;3.75;;;;;;;;;;5011911;28;20072;-59
2023/04/06 05:47:01;;;;;;;5.03;3.45;;;;;;;;;;5011821;28;20029;-60
2023/04/06 05:49:27;;;;;;;5.18;3.70;;;;;;;;;;5012385;28;20421;-60
2023/04/06 05:51:53;;;;;;;7.10;3.83;;;;;;;;;;5012551;28;20026;-60
2023/04/06 05:54:19;;;;;;;4.72;3.30;;;;;;;;;;5012787;28;20037;-60
2023/04/06 05:56:45;;;;;;;7.20;3.55;;;;;;;;;;5011432;28;20045;-60
2023/04/06 05:59:11;;;;;;;5.80;3.63;;;;;;;;;;5011998;28;20116;-61
2023/04/06 06:01:37;;;;;;;4.78;3.38;;;;;;;;;;5012229;28;20120;-61
2023/04/06 06:04:03;;;;;;;5.90;3.60;;;;;;;;;;5011004;28;20526;-60
2023/04/06 06:06:32;;;;;;;7.22;3.40;;;;;;;;;;5012016;28;20057;-60
2023/04/06 06:09:00;;;;;;;6.60;4.03;;;;;;;;;;5012251;28;20030;-61
2023/04/06 06:11:26;;;;;;;10.27;5.72;;;;;;;;;;5011312;28;20397;-60
2023/04/06 06:13:52;;;;;;;10.88;6.07;;;;;;;;;;5011918;28;20029;-60
2023/04/06 06:16:19;;;;;;;10.88;5.97;;;;;;;;;;5012304;28;20030;-60
2023/04/06 06:18:45;;;;;;;12.38;6.53;;;;;;;;;;5011367;28;20393;-61
2023/04/06 06:21:12;;;;;;;11.40;6.00;;;;;;;;;;5011963;28;20022;-61
2023/04/06 06:23:38;;;;;;;12.27;6.38;;;;;;;;;;5011753;28;20104;-61
2023/04/06 06:26:04;;;;;;;17.50;7.28;;;;;;;;;;5011460;28;20141;-61
2023/04/06 06:28:30;;;;;;;14.95;8.80;;;;;;;;;;5011606;28;20040;-61
2023/04/06 06:30:56;;;;;;;14.35;8.32;;;;;;;;;;5011358;28;20022;-61
2023/04/06 06:33:22;;;;;;;18.25;9.60;;;;;;;;;;5011668;28;20463;-60
2023/04/06 06:35:49;;;;;;;20.55;9.93;;;;;;;;;;5011671;28;20080;-61
2023/04/06 06:38:15;;;;;;;17.88;9.20;;;;;;;;;;5031134;28;20029;-60
2023/04/06 06:40:41;;;;;;;18.77;10.25;;;;;;;;;;5030643;28;20108;-60
2023/04/06 06:43:07;;;;;;;21.42;10.60;;;;;;;;;;5031029;28;20068;-61
2023/04/06 06:45:33;;;;;;;18.88;10.45;;;;;;;;;;5021761;28;20054;-60
2023/04/06 06:48:00;;;;;;;19.52;10.43;;;;;;;;;;5011512;28;20033;-61
2023/04/06 06:50:26;;;;;;;19.10;9.77;;;;;;;;;;5011449;28;20040;-60
2023/04/06 06:52:52;;;;;;;21.73;10.85;;;;;;;;;;5012020;28;20108;-61
2023/04/06 06:55:19;;;;;;;16.67;8.77;;;;;;;;;;5011676;28;20493;-61
2023/04/06 06:57:46;;;;;;;18.15;9.55;;;;;;;;;;5011178;28;20467;-61
2023/04/06 07:00:13;;;;;;;17.63;10.25;;;;;;;;;;5010956;28;20080;-61
2023/04/06 07:02:39;;;;;;;21.23;11.32;;;;;;;;;;5008500;28;20036;-61
2023/04/06 07:05:06;;;;;;;22.50;11.23;;;;;;;;;;4999705;28;20029;-61
2023/04/06 07:07:35;;;;;;;16.95;10.23;;;;;;;;;;5011000;28;20029;-61
2023/04/06 07:10:01;;;;;;;21.20;11.20;;;;;;;;;;5011290;28;20141;-60
2023/04/06 07:12:27;;;;;;;21.85;10.80;;;;;;;;;;5011144;28;20033;-60
2023/04/06 07:14:53;;;;;;;20.63;11.43;;;;;;;;;;5011089;28;20037;-61
2023/04/06 07:17:19;;;;;;;23.05;11.80;;;;;;;;;;5023499;28;20460;-61
2023/04/06 07:19:45;;;;;;;21.95;11.18;;;;;;;;;;5011192;28;20401;-61
2023/04/06 07:22:12;;;;;;;21.30;11.30;;;;;;;;;;5001538;28;20101;-61
2023/04/06 07:24:38;;;;;;;22.50;11.38;;;;;;;;;;5010806;28;20404;-61
2023/04/06 07:27:04;;;;;;;19.20;10.57;;;;;;;;;;5011026;28;20430;-60
2023/04/06 07:29:30;;;;;;;20.05;11.32;;;;;;;;;;5010720;28;20030;-60
2023/04/06 07:31:56;;;;;;;19.52;10.10;;;;;;;;;;5011173;28;20018;-61
2023/04/06 07:34:22;;;;;;;20.02;10.90;;;;;;;;;;5010766;28;20033;-61
2023/04/06 07:36:49;;;;;;;21.15;11.75;;;;;;;;;;5011330;28;20030;-61
2023/04/06 07:39:15;;;;;;;19.52;10.80;;;;;;;;;;5010892;28;20038;-60
2023/04/06 07:41:41;;;;;;;19.20;10.63;;;;;;;;;;5010766;28;20037;-59
2023/04/06 07:44:07;;;;;;;22.00;10.98;;;;;;;;;;5013423;28;20133;-61
2023/04/06 07:46:33;;;;;;;24.65;11.20;;;;;;;;;;5014762;28;20458;-61
2023/04/06 07:49:00;;;;;;;19.40;10.00;;;;;;;;;;5010492;28;20405;-61
2023/04/06 07:51:26;;;;;;;19.83;10.73;;;;;;;;;;5014270;28;20041;-60
2023/04/06 07:53:53;;;;;;;23.05;9.73;;;;;;;;;;5014500;28;20037;-61
2023/04/06 07:56:20;;;;;;;18.77;9.70;;;;;;;;;;5015053;28;20036;-61
2023/04/06 07:58:46;;;;;;;18.45;9.27;;;;;;;;;;5014370;28;20025;-60
2023/04/06 08:01:13;;;;;;;16.27;9.98;;;;;;;;;;5014622;28;20037;-61
2023/04/06 08:03:39;;;;;;;16.90;9.32;;;;;;;;;;5014366;28;20022;-61
2023/04/06 08:06:05;;;;;;;16.77;8.85;;;;;;;;;;5015782;28;20118;-61
2023/04/06 08:08:31;;;;;;;16.50;8.82;;;;;;;;;;5015640;28;20037;-61
2023/04/06 08:10:57;;;;;;;16.35;9.77;;;;;;;;;;5023622;28;20101;-60
2023/04/06 08:13:23;;;;;;;15.70;8.32;;;;;;;;;;5031316;28;20043;-61
2023/04/06 08:15:49;;;;;;;15.30;8.40;;;;;;;;;;5031055;28;20108;-60
2023/04/06 08:18:15;;;;;;;15.13;8.77;;;;;;;;;;5014355;28;20545;-61
2023/04/06 08:20:41;;;;;;;14.85;7.85;;;;;;;;;;5013725;28;20474;-61
2023/04/06 08:23:09;;;;;;;14.40;8.30;;;;;;;;;;4996576;28;20030;-60
2023/04/06 08:25:36;;;;;;;15.40;8.85;;;;;;;;;;5013923;28;20026;-60
2023/04/06 08:28:02;;;;;;;12.98;7.55;;;;;;;;;;5014112;28;20378;-60
2023/04/06 08:30:28;;;;;;;14.18;7.60;;;;;;;;;;5013966;28;20413;-60
2023/04/06 08:32:54;;;;;;;14.07;7.78;;;;;;;;;;5013463;28;20079;-61
2023/04/06 08:35:20;;;;;;;15.52;7.30;;;;;;;;;;5014266;28;20037;-61
2023/04/06 08:37:46;;;;;;;12.32;6.90;;;;;;;;;;5013252;28;20505;-60
2023/04/06 08:40:12;;;;;;;12.27;6.90;;;;;;;;;;5013703;28;20038;-60
2023/04/06 08:42:44;;;;;;;13.88;7.05;;;;;;;;;;5013104;28;20030;-61
2023/04/06 08:45:11;;;;;;;13.95;6.88;;;;;;;;;;5013954;28;20029;-62
2023/04/06 08:47:37;;;;;;;11.15;7.40;;;;;;;;;;5013664;28;20033;-61
2023/04/06 08:50:04;;;;;;;11.60;6.88;;;;;;;;;;5013586;28;20025;-61
2023/04/06 08:52:32;;;;;;;11.88;7.20;;;;;;;;;;5012914;28;20541;-61
2023/04/06 08:54:58;;;;;;;12.95;6.55;;;;;;;;;;5013529;28;20040;-61
2023/04/06 08:57:25;;;;;;;13.18;7.47;;;;;;;;;;5013486;28;20148;-60
2023/04/06 08:59:51;;;;;;;10.15;6.75;;;;;;;;;;5012646;28;20037;-61
2023/04/06 09:02:20;;;;;;;12.43;6.93;;;;;;;;;;5013587;28;20101;-60
2023/04/06 09:04:48;;;;;;;11.18;6.72;;;;;;;;;;5012475;28;20160;-61
2023/04/06 09:07:14;;;;;;;13.40;7.00;;;;;;;;;;5013390;28;20030;-61
2023/04/06 09:09:47;;;;;;;11.88;6.57;;;;;;;;;;5013193;28;20414;-60
2023/04/06 09:12:22;;;;;;;13.98;7.50;;;;;;;;;;5013054;28;20022;-60
2023/04/06 09:14:48;;;;;;;12.20;6.57;;;;;;;;;;5013680;28;20485;-60
2023/04/06 09:17:25;;;;;;;12.80;6.32;;;;;;;;;;5013015;28;20025;-61
2023/04/06 09:19:51;;;;;;;12.80;6.10;;;;;;;;;;5013520;28;20030;-61
2023/04/06 09:22:17;;;;;;;11.32;6.40;;;;;;;;;;5012860;28;20045;-61
2023/04/06 09:24:53;;;;;;;9.80;5.93;;;;;;;;;;5012954;28;20026;-60
2023/04/06 09:27:30;;;;;;;11.13;5.82;;;;;;;;;;5013456;28;20423;-61
2023/04/06 09:30:04;;;;;;;10.85;6.00;;;;;;;;;;5012892;28;20318;-61
2023/04/06 09:32:30;;;;;;;15.07;5.80;;;;;;;;;;5012121;28;20087;-60
2023/04/06 09:35:06;;;;;;;10.77;5.85;;;;;;;;;;5012646;28;20045;-60
2023/04/06 09:37:32;;;;;;;9.32;5.50;;;;;;;;;;5012786;28;20022;-60
2023/04/06 09:40:07;;;;;;;8.55;4.82;;;;;;;;;;5011753;28;20398;-61
2023/04/06 09:42:34;;;;;;;11.75;5.32;;;;;;;;;;5011009;28;20109;-60
2023/04/06 09:45:00;;;;;;;10.98;5.28;;;;;;;;;;5012303;28;20125;-60
2023/04/06 09:47:27;;;;;;;7.97;4.93;;;;;;;;;;5011990;28;20429;-61
2023/04/06 09:49:57;;;;;;;7.57;4.90;;;;;;;;;;5012160;28;20030;-61
2023/04/06 09:52:43;;;;;;;8.00;5.18;;;;;;;;;;5011550;28;20057;-61
2023/04/06 09:55:10;;;;;;;9.20;5.38;;;;;;;;;;5002177;28;20383;-61
2023/04/06 09:57:46;;;;;;;8.35;5.03;;;;;;;;;;5012266;28;20573;-60
2023/04/06 10:00:16;;;;;;;8.57;5.03;;;;;;;;;;5012495;28;20543;-61
2023/04/06 10:03:03;;;;;;;7.82;5.05;;;;;;;;;;5011869;28;20563;-61
2023/04/06 10:05:32;;;;;;;8.80;5.30;;;;;;;;;;5011921;28;20026;-61
2023/04/06 10:08:00;;;;;;;7.13;4.47;;;;;;;;;;5011828;28;20113;-61
2023/04/06 10:10:26;;;;;;;6.70;4.38;;;;;;;;;;5007440;28;20033;-61
2023/04/06 10:12:53;;;;;;;7.00;4.10;;;;;;;;;;5012042;28;20037;-61
2023/04/06 10:15:19;;;;;;;6.75;4.55;;;;;;;;;;5012322;28;20125;-62
2023/04/06 10:17:45;;;;;;;6.00;4.28;;;;;;;;;;5011955;28;20045;-62
2023/04/06 10:20:26;;;;;;;6.88;4.28;;;;;;;;;;5011555;28;20022;-62
2023/04/06 10:23:07;;;;;;;7.35;4.45;;;;;;;;;;5012342;28;20029;-61
2023/04/06 10:25:33;;;;;;;5.15;3.63;;;;;;;;;;4993924;28;20032;-62
2023/04/06 10:28:05;;;;;;;6.47;4.05;;;;;;;;;;5011857;28;20037;-61
2023/04/06 10:30:31;;;;;;;6.47;3.95;;;;;;;;;;5011437;28;20053;-62
2023/04/06 10:32:57;;;;;;;6.35;4.15;;;;;;;;;;5011760;28;20064;-63
2023/04/06 10:35:24;;;;;;;5.60;3.67;;;;;;;;;;5011200;28;20026;-63
2023/04/06 10:37:50;;;;;;;7.47;4.25;;;;;;;;;;5012077;28;20036;-63
2023/04/06 10:40:19;;;;;;;5.88;3.88;;;;;;;;;;5011682;28;20041;-62
2023/04/06 10:42:46;;;;;;;6.60;3.80;;;;;;;;;;5011150;28;20116;-63
2023/04/06 10:45:25;;;;;;;6.28;3.17;;;;;;;;;;5011188;28;20781;-63
2023/04/06 10:47:54;;;;;;;5.70;3.60;;;;;;;;;;5011908;28;20502;-61
2023/04/06 10:50:21;;;;;;;6.18;3.63;;;;;;;;;;5012014;28;20432;-63
2023/04/06 10:52:47;;;;;;;7.03;3.95;;;;;;;;;;5011342;28;20097;-60
2023/04/06 10:55:14;;;;;;;7.60;4.55;;;;;;;;;;5011086;28;20100;-60
2023/04/06 10:57:40;;;;;;;8.80;4.15;;;;;;;;;;5011270;28;20399;-61
2023/04/06 11:00:07;;;;;;;8.23;4.03;;;;;;;;;;5011531;28;20033;-61
2023/04/06 11:02:33;;;;;;;9.02;4.35;;;;;;;;;;5011305;28;20030;-60
2023/04/06 11:05:00;;;;;;;9.18;3.78;;;;;;;;;;5011060;28;20053;-60
2023/04/06 11:07:27;;;;;;;6.25;3.40;;;;;;;;;;5011297;28;20493;-61
2023/04/06 11:09:53;;;;;;;5.68;4.10;;;;;;;;;;5011362;28;20029;-60
2023/04/06 11:12:26;;;;;;;6.13;3.85;;;;;;;;;;5010316;28;20030;-61
2023/04/06 11:14:55;;;;;;;5.50;3.83;;;;;;;;;;5011483;28;20061;-63
2023/04/06 11:17:28;;;;;;;7.18;3.42;;;;;;;;;;5011407;28;20038;-60
2023/04/06 11:19:55;;;;;;;6.93;3.85;;;;;;;;;;5014984;28;20028;-63
2023/04/06 11:22:21;;;;;;;5.25;3.38;;;;;;;;;;5015459;28;20516;-60
2023/04/06 11:24:48;;;;;;;4.95;3.30;;;;;;;;;;5015558;28;20093;-62
2023/04/06 11:27:15;;;;;;;7.05;3.45;;;;;;;;;;5015487;28;20101;-61
2023/04/06 11:29:42;;;;;;;8.05;3.35;;;;;;;;;;5015129;28;20014;-61
2023/04/06 11:32:08;;;;;;;5.43;3.72;;;;;;;;;;5015084;28;20125;-63
2023/04/06 11:34:36;;;;;;;4.43;3.00;;;;;;;;;;5014864;28;20492;-61
2023/04/06 11:37:05;;;;;;;6.60;3.60;;;;;;;;;;5014852;28;20052;-61
2023/04/06 11:39:35;;;;;;;4.90;3.53;;;;;;;;;;5014695;28;20030;-61
2023/04/06 11:42:04;;;;;;;6.85;3.55;;;;;;;;;;5014978;28;20165;-61
2023/04/06 11:44:42;;;;;;;4.95;3.22;;;;;;;;;;5014850;28;20026;-61
2023/04/06 11:47:09;;;;;;;4.60;3.30;;;;;;;;;;5014593;28;20494;-61
2023/04/06 11:49:40;;;;;;;13.70;3.75;;;;;;;;;;5014580;28;20034;-62
2023/04/06 11:52:18;;;;;;;6.72;3.95;;;;;;;;;;5014945;28;20036;-61
2023/04/06 11:54:44;;;;;;;6.85;3.53;;;;;;;;;;5014657;28;20080;-61
2023/04/06 11:57:10;;;;;;;6.20;3.92;;;;;;;;;;5014528;28;20026;-61
2023/04/06 11:59:36;;;;;;;6.70;3.72;;;;;;;;;;5014497;28;20544;-61
2023/04/06 12:02:02;;;;;;;5.95;3.33;;;;;;;;;;5014184;28;20022;-62
2023/04/06 12:04:29;;;;;;;5.22;3.15;;;;;;;;;;5019986;28;20030;-60
2023/04/06 12:06:55;;;;;;;4.30;3.45;;;;;;;;;;5022651;28;20026;-60
2023/04/06 12:09:21;;;;;;;4.97;3.60;;;;;;;;;;5023292;28;20500;-61
2023/04/06 12:11:47;;;;;;;4.25;3.53;;;;;;;;;;5026556;28;20026;-61
2023/04/06 12:14:13;;;;;;;5.38;3.30;;;;;;;;;;5025820;28;20516;-60
2023/04/06 12:16:39;;;;;;;4.68;3.25;;;;;;;;;;5023291;28;20513;-60
2023/04/06 12:19:06;;;;;;;3.72;2.70;;;;;;;;;;5016255;28;20504;-60
2023/04/06 12:21:32;;;;;;;4.65;3.10;;;;;;;;;;5014290;28;20152;-60
2023/04/06 12:23:59;;;;;;;5.18;2.78;;;;;;;;;;5014017;28;20026;-61
2023/04/06 12:26:26;;;;;;;4.03;3.00;;;;;;;;;;5013892;28;20030;-60
2023/04/06 12:28:52;;;;;;;3.78;2.40;;;;;;;;;;5013849;28;20064;-60
2023/04/06 12:31:18;;;;;;;2.72;2.45;;;;;;;;;;5014431;28;20053;-62
2023/04/06 12:33:47;;;;;;;5.65;3.10;;;;;;;;;;5013430;28;21198;-61
2023/04/06 12:36:13;;;;;;;4.20;3.05;;;;;;;;;;4994514;28;20092;-64
2023/04/06 12:38:40;;;;;;;4.00;2.80;;;;;;;;;;4994120;28;20026;-63
2023/04/06 12:41:07;;;;;;;4.63;2.75;;;;;;;;;;4994455;28;20026;-60
2023/04/06 12:43:33;;;;;;;3.20;2.50;;;;;;;;;;4976565;28;20062;-62
2023/04/06 12:45:59;;;;;;;3.88;2.53;;;;;;;;;;5010939;28;20025;-61
2023/04/06 12:48:27;;;;;;;5.05;3.13;;;;;;;;;;5013335;28;20026;-61
2023/04/06 12:51:00;;;;;;;4.97;3.10;;;;;;;;;;5013957;28;20177;-61
2023/04/06 12:53:26;;;;;;;6.28;2.53;;;;;;;;;;5013682;28;20032;-61
2023/04/06 12:55:54;;;;;;;3.90;2.88;;;;;;;;;;5013255;28;20045;-61
2023/04/06 12:58:20;;;;;;;3.47;2.80;;;;;;;;;;5014095;28;20103;-61
2023/04/06 13:00:47;;;;;;;5.32;2.83;;;;;;;;;;5013355;28;20121;-62
2023/04/06 13:03:13;;;;;;;3.38;2.67;;;;;;;;;;5012891;28;20030;-63
2023/04/06 13:05:45;;;;;;;3.78;3.00;;;;;;;;;;5013384;28;20026;-63
2023/04/06 13:08:12;;;;;;;4.25;3.15;;;;;;;;;;5013400;28;20034;-62
2023/04/06 13:10:38;;;;;;;3.35;2.45;;;;;;;;;;5013110;28;20025;-60
2023/04/06 13:13:04;;;;;;;3.60;2.80;;;;;;;;;;5012873;28;20065;-60
2023/04/06 13:15:30;;;;;;;4.45;3.10;;;;;;;;;;5012830;28;20147;-63
2023/04/06 13:17:56;;;;;;;3.88;2.90;;;;;;;;;;5013283;28;20489;-60
2023/04/06 13:20:24;;;;;;;4.03;3.40;;;;;;;;;;5012904;28;20057;-61
2023/04/06 13:22:50;;;;;;;3.78;2.78;;;;;;;;;;5013464;28;20037;-61
2023/04/06 13:25:16;;;;;;;4.35;3.25;;;;;;;;;;5012132;28;20053;-61
2023/04/06 13:27:45;;;;;;;3.45;3.15;;;;;;;;;;5012760;28;20555;-62
2023/04/06 13:30:12;;;;;;;4.80;3.22;;;;;;;;;;5013226;28;20038;-61
2023/04/06 13:32:38;;;;;;;6.10;3.28;;;;;;;;;;5012801;28;20026;-60
2023/04/06 13:35:06;;;;;;;3.90;3.00;;;;;;;;;;5012480;28;20111;-62
2023/04/06 13:37:32;;;;;;;4.82;3.08;;;;;;;;;;5012592;28;20038;-61
2023/04/06 13:39:58;;;;;;;4.85;2.58;;;;;;;;;;5012788;28;20478;-60
2023/04/06 13:42:24;;;;;;;5.07;3.45;;;;;;;;;;5011458;28;20037;-60
2023/04/06 13:44:50;;;;;;;5.05;3.60;;;;;;;;;;5012520;28;20470;-60
2023/04/06 13:47:17;;;;;;;3.85;2.70;;;;;;;;;;5012565;28;20026;-61
2023/04/06 13:49:43;;;;;;;7.35;4.25;;;;;;;;;;5012355;28;20041;-62
2023/04/06 13:52:10;;;;;;;5.38;3.13;;;;;;;;;;5012766;28;20026;-61
2023/04/06 13:54:36;;;;;;;3.72;3.13;;;;;;;;;;5011765;28;20413;-61
2023/04/06 13:57:02;;;;;;;4.50;2.55;;;;;;;;;;5012521;28;20097;-61
2023/04/06 13:59:35;;;;;;;5.00;2.88;;;;;;;;;;5012388;28;20041;-61
2023/04/06 14:02:01;;;;;;;3.72;3.05;;;;;;;;;;4986525;28;20085;-60
2023/04/06 14:04:27;;;;;;;4.65;2.67;;;;;;;;;;4992596;28;20031;-61
2023/04/06 14:06:53;;;;;;;5.95;3.20;;;;;;;;;;5001140;28;20382;-64
2023/04/06 14:09:19;;;;;;;4.70;3.08;;;;;;;;;;5012408;28;20030;-61
2023/04/06 14:11:45;;;;;;;6.20;3.40;;;;;;;;;;5011568;28;20522;-61
2023/04/06 14:14:11;;;;;;;4.93;2.67;;;;;;;;;;5012106;28;20030;-61
2023/04/06 14:16:37;;;;;;;4.72;2.72;;;;;;;;;;5011592;28;20026;-61
2023/04/06 14:19:03;;;;;;;5.13;3.20;;;;;;;;;;5012112;28;20075;-61
2023/04/06 14:21:29;;;;;;;5.47;3.03;;;;;;;;;;5011869;28;20030;-61
2023/04/06 14:23:56;;;;;;;5.25;3.08;;;;;;;;;;5006979;28;20514;-63
2023/04/06 14:26:22;;;;;;;4.15;2.67;;;;;;;;;;5011356;28;20044;-61
2023/04/06 14:28:48;;;;;;;3.75;2.85;;;;;;;;;;5012364;28;20026;-64
2023/04/06 14:31:15;;;;;;;5.22;2.90;;;;;;;;;;5010515;28;20030;-61
2023/04/06 14:33:42;;;;;;;6.60;2.85;;;;;;;;;;5011262;28;20397;-62
2023/04/06 14:36:08;;;;;;;5.65;2.88;;;;;;;;;;5011806;28;20034;-60